Time;durP1;ratioP1;P1;durP2;ratioP2;P2;SDS_P1;SDS_P2;PMS_P1;PMS_P2;Temp;Humidity;BMP_temperature;BMP_pressure;BME280_temperature;BME280_humidity;BME280_pressure;Samples;Min_cycle;Max_cycle;Signal;HPM_P1;HPM_P2
2023/03/07 00:00:08;;;;;;;31.87;18.13;;;3.30;99.90;;;;;;5045431;28;20447;-81
2023/03/07 00:02:34;;;;;;;35.23;19.00;;;3.40;99.90;;;;;;5045136;28;20439;-80
2023/03/07 00:05:01;;;;;;;31.40;17.97;;;3.50;99.90;;;;;;5045210;28;20476;-81
2023/03/07 00:07:28;;;;;;;31.10;15.87;;;3.60;99.90;;;;;;5045620;28;20954;-81
2023/03/07 00:09:56;;;;;;;22.60;14.10;;;3.70;99.90;;;;;;5046959;28;20435;-81
2023/03/07 00:12:24;;;;;;;29.03;14.73;;;3.70;99.90;;;;;;5046230;28;20559;-81
2023/03/07 00:14:50;;;;;;;21.97;12.10;;;3.80;99.90;;;;;;5045611;28;20468;-82
2023/03/07 00:17:17;;;;;;;19.20;11.20;;;3.90;99.90;;;;;;5036721;28;20457;-81
2023/03/07 00:19:44;;;;;;;21.83;13.23;;;4.00;99.90;;;;;;5036894;28;20427;-81
2023/03/07 00:22:11;;;;;;;18.43;11.20;;;4.10;99.90;;;;;;5039493;28;20452;-81
2023/03/07 00:24:38;;;;;;;12.57;9.23;;;4.10;99.90;;;;;;5042435;28;20931;-81
2023/03/07 00:27:07;;;;;;;16.57;11.27;;;4.20;99.90;;;;;;5036596;28;20453;-81
2023/03/07 00:29:34;;;;;;;21.00;13.90;;;4.20;99.90;;;;;;5036586;28;20468;-80
2023/03/07 00:32:01;;;;;;;18.43;10.97;;;4.20;99.90;;;;;;5023709;28;20455;-81
2023/03/07 00:34:28;;;;;;;19.07;11.27;;;4.20;99.90;;;;;;5038182;28;20459;-81
2023/03/07 00:36:54;;;;;;;17.30;9.60;;;4.20;99.90;;;;;;5037352;28;20578;-82
2023/03/07 00:39:21;;;;;;;16.23;11.43;;;4.30;99.90;;;;;;5042544;28;20548;-81
2023/03/07 00:41:48;;;;;;;15.93;10.23;;;4.30;99.90;;;;;;5047930;28;20485;-83
2023/03/07 00:44:16;;;;;;;20.77;13.33;;;4.40;99.90;;;;;;5043601;28;20487;-83
2023/03/07 00:46:43;;;;;;;19.00;12.67;;;4.40;99.90;;;;;;5043582;28;20548;-83
2023/03/07 00:49:10;;;;;;;16.53;9.97;;;4.40;99.90;;;;;;5044602;28;20854;-83
2023/03/07 00:51:36;;;;;;;14.20;9.20;;;4.50;99.90;;;;;;5044352;28;20461;-82
2023/03/07 00:54:03;;;;;;;14.33;9.17;;;4.40;99.90;;;;;;5044089;28;20543;-82
2023/03/07 00:56:30;;;;;;;15.80;11.23;;;4.40;99.90;;;;;;5043205;28;20439;-83
2023/03/07 00:58:57;;;;;;;16.40;12.00;;;4.40;99.90;;;;;;5044266;28;20529;-81
2023/03/07 01:01:25;;;;;;;14.40;10.27;;;4.40;99.90;;;;;;5043860;28;20939;-81
2023/03/07 01:03:53;;;;;;;11.70;9.80;;;4.40;99.90;;;;;;5044624;28;20452;-81
2023/03/07 01:06:22;;;;;;;14.20;8.93;;;4.40;99.90;;;;;;5044579;28;20494;-82
2023/03/07 01:08:49;;;;;;;15.73;10.30;;;4.50;99.90;;;;;;5043905;28;20526;-81
2023/03/07 01:11:16;;;;;;;16.27;10.73;;;4.50;99.90;;;;;;5043859;28;20543;-82
2023/03/07 01:13:43;;;;;;;14.70;9.37;;;4.50;99.90;;;;;;5026782;28;20480;-81
2023/03/07 01:16:12;;;;;;;15.03;9.40;;;4.50;99.90;;;;;;5043113;28;20507;-82
2023/03/07 01:18:41;;;;;;;14.10;10.13;;;4.50;99.90;;;;;;5041356;28;20422;-82
2023/03/07 01:21:13;;;;;;;14.73;10.40;;;4.40;99.90;;;;;;5039877;28;20455;-82
2023/03/07 01:23:39;;;;;;;13.77;9.13;;;4.50;99.90;;;;;;5042897;28;20940;-83
2023/03/07 01:26:06;;;;;;;12.10;8.80;;;4.50;99.90;;;;;;5038355;28;20496;-84
2023/03/07 01:28:33;;;;;;;10.60;8.23;;;4.50;99.90;;;;;;5038367;28;20460;-82
2023/03/07 01:31:00;;;;;;;13.20;9.70;;;4.50;99.90;;;;;;5037662;28;20545;-83
2023/03/07 01:33:27;;;;;;;11.27;8.77;;;4.50;99.90;;;;;;5038176;28;20852;-83
2023/03/07 01:35:55;;;;;;;10.33;7.83;;;4.50;99.90;;;;;;5037783;28;20541;-83
2023/03/07 01:38:22;;;;;;;14.53;8.73;;;4.60;99.90;;;;;;5037631;28;20551;-83
2023/03/07 01:40:49;;;;;;;9.03;7.80;;;4.60;99.90;;;;;;5038038;28;21039;-84
2023/03/07 01:43:23;;;;;;;13.37;9.67;;;4.60;99.90;;;;;;5038111;28;20527;-84
2023/03/07 01:46:23;;;;;;;11.40;8.43;;;4.60;99.90;;;;;;5036935;28;20493;-84
2023/03/07 01:48:53;;;;;;;13.00;9.50;;;4.60;99.90;;;;;;5038609;28;20453;-84
2023/03/07 01:51:22;;;;;;;14.80;10.03;;;4.50;99.90;;;;;;5037987;28;20461;-84
2023/03/07 01:53:51;;;;;;;12.97;9.40;;;4.60;99.90;;;;;;5038329;28;20499;-84
2023/03/07 01:56:19;;;;;;;10.97;8.40;;;4.60;99.90;;;;;;5038432;28;20455;-83
2023/03/07 01:58:46;;;;;;;13.30;9.83;;;4.60;99.90;;;;;;5037812;28;20471;-85
2023/03/07 02:01:14;;;;;;;13.87;10.50;;;4.70;99.90;;;;;;5037745;28;20801;-84
2023/03/07 02:03:48;;;;;;;16.40;9.90;;;4.70;99.90;;;;;;5038327;28;20432;-84
2023/03/07 02:06:15;;;;;;;15.70;11.40;;;4.70;99.90;;;;;;5038975;28;20493;-84
2023/03/07 02:08:44;;;;;;;15.47;11.57;;;4.70;99.90;;;;;;5043508;28;20461;-84
2023/03/07 02:11:11;;;;;;;14.97;10.27;;;4.60;99.90;;;;;;5038577;28;20445;-84
2023/03/07 02:13:38;;;;;;;15.83;12.07;;;4.60;99.90;;;;;;5038298;28;20445;-84
2023/03/07 02:16:07;;;;;;;18.27;12.30;;;4.60;99.90;;;;;;5038660;28;20447;-84
2023/03/07 02:18:40;;;;;;;19.37;12.63;;;4.70;99.90;;;;;;5038410;28;20427;-83
2023/03/07 02:21:12;;;;;;;19.33;11.77;;;4.70;99.90;;;;;;5038020;28;20501;-84
2023/03/07 02:23:46;;;;;;;19.20;14.17;;;4.60;99.90;;;;;;5040446;28;20876;-84
2023/03/07 02:26:20;;;;;;;17.17;11.60;;;4.60;99.90;;;;;;5037131;28;20993;-84
2023/03/07 02:28:49;;;;;;;21.10;12.50;;;4.60;99.90;;;;;;5035921;28;20457;-85
2023/03/07 02:31:15;;;;;;;15.23;11.77;;;4.50;99.90;;;;;;5042654;28;20565;-84
2023/03/07 02:33:42;;;;;;;19.07;13.80;;;4.60;99.90;;;;;;5032773;28;20458;-86
2023/03/07 02:36:12;;;;;;;22.97;16.07;;;4.50;99.90;;;;;;5033564;28;21010;-84
2023/03/07 02:38:42;;;;;;;19.83;14.87;;;4.50;99.90;;;;;;5032453;28;20431;-85
2023/03/07 02:41:12;;;;;;;26.10;16.17;;;4.60;99.90;;;;;;5032744;28;20546;-85
2023/03/07 02:43:38;;;;;;;21.23;14.67;;;4.60;99.90;;;;;;5032782;28;20544;-85
2023/03/07 02:46:07;;;;;;;22.17;14.70;;;4.60;99.90;;;;;;5033412;28;20495;-86
2023/03/07 02:48:34;;;;;;;17.63;13.27;;;4.70;99.90;;;;;;5033346;28;20459;-84
2023/03/07 02:51:00;;;;;;;19.80;13.63;;;4.70;99.90;;;;;;5034171;28;20427;-85
2023/03/07 02:53:27;;;;;;;115.87;45.27;;;4.70;99.90;;;;;;5032816;28;21014;-85
2023/03/07 02:55:54;;;;;;;16.17;11.77;;;4.70;99.90;;;;;;5033599;28;20660;-86
2023/03/07 02:58:21;;;;;;;12.03;7.10;;;4.70;99.90;;;;;;5036069;28;20531;-83
2023/03/07 03:00:48;;;;;;;8.30;6.77;;;4.70;99.90;;;;;;5041095;28;20427;-84
2023/03/07 03:03:16;;;;;;;6.90;5.90;;;4.60;99.90;;;;;;5040061;28;20443;-85
2023/03/07 03:05:43;;;;;;;7.93;4.43;;;4.70;99.90;;;;;;5058538;23;21017;-82
2023/03/07 03:08:11;;;;;;;7.73;5.80;;;4.70;99.90;;;;;;5034702;28;20566;-80
2023/03/07 03:10:38;;;;;;;5.30;4.63;;;4.70;99.90;;;;;;5038343;28;20460;-81
2023/03/07 03:13:05;;;;;;;5.80;4.50;;;4.70;99.90;;;;;;5024373;28;20442;-81
2023/03/07 03:15:32;;;;;;;6.20;4.90;;;4.70;99.90;;;;;;5018376;28;20462;-80
2023/03/07 03:17:59;;;;;;;5.33;4.73;;;4.70;99.90;;;;;;5018411;28;20580;-81
2023/03/07 03:20:27;;;;;;;5.73;4.53;;;4.70;99.90;;;;;;5015407;28;20447;-80
2023/03/07 03:22:54;;;;;;;4.93;3.90;;;4.60;99.90;;;;;;5018406;28;20977;-80
2023/03/07 03:25:22;;;;;;;4.77;3.67;;;4.60;99.90;;;;;;5018058;28;20420;-80
2023/03/07 03:27:49;;;;;;;5.30;4.80;;;4.70;99.90;;;;;;5017958;28;20528;-81
2023/03/07 03:30:16;;;;;;;5.90;3.93;;;4.70;99.90;;;;;;5017746;28;20436;-82
2023/03/07 03:32:43;;;;;;;4.43;3.80;;;4.60;99.90;;;;;;5018045;28;20545;-81
2023/03/07 03:35:11;;;;;;;5.40;4.20;;;4.60;99.90;;;;;;5017927;28;20432;-81
2023/03/07 03:37:39;;;;;;;4.83;3.17;;;4.60;99.90;;;;;;5017687;28;20446;-80
2023/03/07 03:40:13;;;;;;;5.17;3.70;;;4.50;99.90;;;;;;5017170;28;20424;-81
2023/03/07 03:42:40;;;;;;;4.23;3.77;;;4.60;99.90;;;;;;5018064;28;20449;-81
2023/03/07 03:45:09;;;;;;;4.93;4.17;;;4.60;99.90;;;;;;5018156;28;20972;-80
2023/03/07 03:47:36;;;;;;;4.90;3.93;;;4.50;99.90;;;;;;5017481;28;20568;-81
2023/03/07 03:50:04;;;;;;;5.40;4.87;;;4.60;99.90;;;;;;5017575;28;20438;-81
2023/03/07 03:52:30;;;;;;;7.07;4.53;;;4.60;99.90;;;;;;5017166;28;20446;-81
2023/03/07 03:54:58;;;;;;;6.23;4.17;;;4.60;99.90;;;;;;5018409;28;20544;-80
2023/03/07 03:57:25;;;;;;;7.77;5.73;;;4.60;99.90;;;;;;5017487;28;20790;-82
2023/03/07 03:59:52;;;;;;;5.70;4.43;;;4.60;99.90;;;;;;5017630;28;20481;-81
2023/03/07 04:02:20;;;;;;;6.50;4.73;;;4.60;99.90;;;;;;5017562;28;20462;-80
2023/03/07 04:04:46;;;;;;;5.90;4.50;;;4.60;99.90;;;;;;5017292;28;20433;-78
2023/03/07 04:07:14;;;;;;;6.97;4.80;;;4.70;99.90;;;;;;5016768;28;20493;-81
2023/03/07 04:09:41;;;;;;;6.70;4.77;;;4.60;99.90;;;;;;5017014;28;20452;-81
2023/03/07 04:12:09;;;;;;;7.30;5.43;;;4.60;99.90;;;;;;5015662;28;20434;-79
2023/03/07 04:14:36;;;;;;;6.17;4.43;;;4.70;99.90;;;;;;5017599;28;20456;-81
2023/03/07 04:17:03;;;;;;;7.70;6.17;;;4.70;99.90;;;;;;5017284;28;20542;-81
2023/03/07 04:19:29;;;;;;;7.80;5.90;;;4.70;99.90;;;;;;5017869;28;20552;-82
2023/03/07 04:21:56;;;;;;;7.93;6.20;;;4.70;99.90;;;;;;5017026;28;20461;-81
2023/03/07 04:24:23;;;;;;;7.90;6.33;;;4.70;99.90;;;;;;5016725;28;20504;-81
2023/03/07 04:26:50;;;;;;;9.27;7.30;;;4.80;99.90;;;;;;5017210;28;20582;-81
2023/03/07 04:29:18;;;;;;;10.23;8.13;;;4.80;99.90;;;;;;5016371;28;20458;-81
2023/03/07 04:31:44;;;;;;;11.23;8.47;;;4.70;99.90;;;;;;5017054;28;20976;-81
2023/03/07 04:34:12;;;;;;;12.90;9.57;;;4.70;99.90;;;;;;5016768;28;20844;-82
2023/03/07 04:36:38;;;;;;;11.80;8.70;;;4.70;99.90;;;;;;5016682;28;20473;-82
2023/03/07 04:39:05;;;;;;;14.50;9.90;;;4.80;99.90;;;;;;5015850;28;20537;-82
2023/03/07 04:41:32;;;;;;;13.37;9.87;;;4.70;99.90;;;;;;5016126;28;20465;-81
2023/03/07 04:43:59;;;;;;;9.83;7.60;;;4.70;99.90;;;;;;5016187;28;20514;-82
2023/03/07 04:46:28;;;;;;;10.10;7.77;;;4.70;99.90;;;;;;5015748;28;20474;-82
2023/03/07 04:48:55;;;;;;;6.63;5.30;;;4.60;99.90;;;;;;5015367;28;20439;-82
2023/03/07 04:51:22;;;;;;;5.57;4.63;;;4.70;99.90;;;;;;5015761;28;20840;-81
2023/03/07 04:53:49;;;;;;;6.17;4.40;;;4.60;99.90;;;;;;5015650;28;20464;-81
2023/03/07 04:56:16;;;;;;;5.10;3.60;;;4.60;99.90;;;;;;5015749;28;20562;-82
2023/03/07 04:58:44;;;;;;;6.60;4.57;;;4.60;99.90;;;;;;5013295;28;20790;-82
2023/03/07 05:01:11;;;;;;;6.17;4.80;;;4.60;99.90;;;;;;5014988;28;20490;-81
2023/03/07 05:03:39;;;;;;;5.47;4.10;;;4.60;99.90;;;;;;5015309;28;20427;-81
2023/03/07 05:06:10;;;;;;;8.40;5.17;;;4.60;99.90;;;;;;5013924;28;20470;-81
2023/03/07 05:08:36;;;;;;;7.63;5.47;;;4.60;99.90;;;;;;5014964;28;20486;-81
2023/03/07 05:11:03;;;;;;;7.70;6.00;;;4.60;99.90;;;;;;5007198;28;20464;-81
2023/03/07 05:13:30;;;;;;;7.73;6.23;;;4.60;99.90;;;;;;5008374;28;20463;-81
2023/03/07 05:15:58;;;;;;;9.00;6.63;;;4.60;99.90;;;;;;5012868;28;20484;-80
2023/03/07 05:18:26;;;;;;;7.80;6.53;;;4.50;99.90;;;;;;5006857;28;20432;-78
2023/03/07 05:20:54;;;;;;;8.27;6.60;;;4.50;99.90;;;;;;5013587;28;20460;-81
2023/03/07 05:23:21;;;;;;;9.10;7.43;;;4.50;99.90;;;;;;5015150;28;20455;-81
2023/03/07 05:25:48;;;;;;;9.67;8.03;;;4.50;99.90;;;;;;5013732;28;20483;-82
2023/03/07 05:28:16;;;;;;;9.90;7.10;;;4.40;99.90;;;;;;5021298;28;20494;-81
2023/03/07 05:30:43;;;;;;;14.43;8.80;;;4.50;99.90;;;;;;5030874;28;20461;-82
2023/03/07 05:33:09;;;;;;;9.70;7.63;;;4.50;99.90;;;;;;5031541;28;20530;-81
2023/03/07 05:35:37;;;;;;;10.93;8.87;;;4.50;99.90;;;;;;5030816;28;20536;-81
2023/03/07 05:38:06;;;;;;;11.67;8.37;;;4.40;99.90;;;;;;5030211;28;20481;-81
2023/03/07 05:40:33;;;;;;;10.73;8.10;;;4.40;99.90;;;;;;5031024;28;20505;-80
2023/03/07 05:43:00;;;;;;;11.83;8.83;;;4.50;99.90;;;;;;5031191;28;20516;-81
2023/03/07 05:45:26;;;;;;;9.50;7.90;;;4.40;99.90;;;;;;5026930;28;20453;-81
2023/03/07 05:47:53;;;;;;;9.80;7.73;;;4.50;99.90;;;;;;5021665;28;20554;-81
2023/03/07 05:50:21;;;;;;;9.93;7.40;;;4.50;99.90;;;;;;5015466;28;20550;-81
2023/03/07 05:52:47;;;;;;;11.57;8.40;;;4.60;99.90;;;;;;5016158;28;20493;-82
2023/03/07 05:55:16;;;;;;;9.70;8.13;;;4.60;99.90;;;;;;5012930;28;20462;-80
2023/03/07 05:57:43;;;;;;;11.73;9.73;;;4.60;99.90;;;;;;5012697;28;20473;-82
2023/03/07 06:00:11;;;;;;;13.57;9.77;;;4.60;99.90;;;;;;5012859;28;20488;-81
2023/03/07 06:02:38;;;;;;;10.27;8.27;;;4.60;99.90;;;;;;5014932;28;20459;-80
2023/03/07 06:05:05;;;;;;;13.20;9.17;;;4.60;99.90;;;;;;5015052;28;20849;-81
2023/03/07 06:07:35;;;;;;;14.53;8.80;;;4.50;99.90;;;;;;5014656;28;20495;-80
2023/03/07 06:10:01;;;;;;;15.33;10.80;;;4.50;99.90;;;;;;5014973;28;20425;-81
2023/03/07 06:12:30;;;;;;;12.40;9.20;;;4.50;99.90;;;;;;5015330;28;20438;-80
2023/03/07 06:14:57;;;;;;;15.33;10.00;;;4.50;99.90;;;;;;5015187;28;20460;-82
2023/03/07 06:17:23;;;;;;;15.00;11.00;;;4.40;99.90;;;;;;5015012;28;20891;-81
2023/03/07 06:19:51;;;;;;;11.40;9.70;;;4.50;99.90;;;;;;5015897;28;20921;-82
2023/03/07 06:22:17;;;;;;;12.00;9.33;;;4.50;99.90;;;;;;5015575;28;20550;-81
2023/03/07 06:24:44;;;;;;;11.53;9.47;;;4.50;99.90;;;;;;5015306;28;20956;-79
2023/03/07 06:27:11;;;;;;;11.83;9.63;;;4.50;99.90;;;;;;5014995;28;20485;-82
2023/03/07 06:29:39;;;;;;;12.73;8.97;;;4.50;99.90;;;;;;5014987;28;20464;-82
2023/03/07 06:32:06;;;;;;;12.93;9.80;;;4.50;99.90;;;;;;5013826;28;20549;-81
2023/03/07 06:34:33;;;;;;;10.47;9.40;;;4.50;99.90;;;;;;5015180;28;20449;-81
2023/03/07 06:37:00;;;;;;;12.77;10.97;;;4.50;99.90;;;;;;5013390;28;20915;-81
2023/03/07 06:39:27;;;;;;;11.97;9.57;;;4.50;99.90;;;;;;5014819;28;20465;-82
2023/03/07 06:41:54;;;;;;;12.53;10.43;;;4.60;99.90;;;;;;5013853;28;20497;-80
2023/03/07 06:44:20;;;;;;;11.60;10.30;;;4.50;99.90;;;;;;5011973;28;21068;-80
2023/03/07 06:46:49;;;;;;;12.80;10.37;;;4.60;99.90;;;;;;5010869;28;20449;-80
2023/03/07 06:49:15;;;;;;;11.50;9.00;;;4.50;99.90;;;;;;5014263;28;21002;-82
2023/03/07 06:51:42;;;;;;;11.20;8.63;;;4.50;99.90;;;;;;5016277;28;21096;-86
2023/03/07 06:54:09;;;;;;;11.90;9.60;;;4.60;99.90;;;;;;5016147;28;20525;-86
2023/03/07 06:56:36;;;;;;;13.33;9.70;;;4.50;99.90;;;;;;5016992;28;20477;-86
2023/03/07 06:59:03;;;;;;;16.23;9.30;;;4.50;99.90;;;;;;5014908;28;20458;-85
2023/03/07 07:01:30;;;;;;;15.80;11.87;;;4.60;99.90;;;;;;5012943;28;20454;-85
2023/03/07 07:03:59;;;;;;;15.70;11.60;;;4.50;99.90;;;;;;5015533;28;20904;-82
2023/03/07 07:06:25;;;;;;;11.97;9.93;;;4.60;99.90;;;;;;5016593;28;20498;-83
2023/03/07 07:08:55;;;;;;;18.20;10.87;;;4.60;99.90;;;;;;5016123;28;20559;-87
2023/03/07 07:11:22;;;;;;;20.27;11.27;;;4.60;99.90;;;;;;5016908;28;20921;-86
2023/03/07 07:13:49;;;;;;;12.77;9.83;;;4.70;99.90;;;;;;5015626;28;20895;-85
2023/03/07 07:16:17;;;;;;;14.63;10.63;;;4.70;99.90;;;;;;5016986;28;20485;-86
2023/03/07 07:18:45;;;;;;;15.27;10.90;;;4.70;99.90;;;;;;5015973;28;20521;-85
2023/03/07 07:21:13;;;;;;;12.90;10.50;;;4.70;99.90;;;;;;5015305;28;20537;-86
2023/03/07 07:23:40;;;;;;;13.20;9.80;;;4.70;99.90;;;;;;5018352;28;20527;-86
2023/03/07 07:26:07;;;;;;;12.73;9.70;;;4.70;99.90;;;;;;5017055;28;20484;-85
2023/03/07 07:28:34;;;;;;;11.67;10.23;;;4.70;99.90;;;;;;5016753;28;20904;-87
2023/03/07 07:31:03;;;;;;;13.20;10.13;;;4.70;99.90;;;;;;5017080;28;20434;-86
2023/03/07 07:33:30;;;;;;;15.40;11.23;;;4.70;99.90;;;;;;5012912;28;20454;-86
2023/03/07 07:35:57;;;;;;;13.37;10.47;;;4.70;99.90;;;;;;5015285;28;20876;-85
2023/03/07 07:38:25;;;;;;;13.90;10.27;;;4.70;99.90;;;;;;5016378;28;20560;-84
2023/03/07 07:40:52;;;;;;;15.80;10.23;;;4.70;99.90;;;;;;5015722;28;20829;-85
2023/03/07 07:43:19;;;;;;;18.43;10.73;;;4.70;99.90;;;;;;5016688;28;20532;-86
2023/03/07 07:45:46;;;;;;;12.93;10.20;;;4.70;99.90;;;;;;5016645;28;20562;-86
2023/03/07 07:48:13;;;;;;;15.27;10.43;;;4.70;99.90;;;;;;5016737;28;20602;-86
2023/03/07 07:50:39;;;;;;;16.80;11.07;;;4.80;99.90;;;;;;5018177;28;20454;-86
2023/03/07 07:53:07;;;;;;;14.53;10.93;;;4.70;99.90;;;;;;5019719;28;20809;-86
2023/03/07 07:55:35;;;;;;;12.90;9.63;;;4.70;99.90;;;;;;5019173;28;20939;-86
2023/03/07 07:58:02;;;;;;;13.60;9.93;;;4.80;99.90;;;;;;5019183;28;20434;-85
2023/03/07 08:00:28;;;;;;;12.80;10.20;;;4.80;99.90;;;;;;5019615;28;20496;-86
2023/03/07 08:02:55;;;;;;;13.20;9.67;;;4.80;99.90;;;;;;5022329;28;20435;-87
2023/03/07 08:05:22;;;;;;;14.87;10.57;;;4.70;99.90;;;;;;5020284;28;20561;-86
2023/03/07 08:07:50;;;;;;;15.37;10.27;;;4.70;99.90;;;;;;5020007;28;20517;-86
2023/03/07 08:10:18;;;;;;;13.80;10.10;;;4.70;99.90;;;;;;5019001;28;20461;-86
2023/03/07 08:12:50;;;;;;;14.20;11.10;;;4.80;99.90;;;;;;5020383;28;20453;-87
2023/03/07 08:15:18;;;;;;;13.33;9.77;;;4.80;99.90;;;;;;5020746;28;20501;-87
2023/03/07 08:17:45;;;;;;;14.10;10.20;;;4.80;99.90;;;;;;5021125;28;20421;-86
2023/03/07 08:20:12;;;;;;;14.00;10.50;;;4.80;99.90;;;;;;5013686;28;20437;-85
2023/03/07 08:22:39;;;;;;;14.37;9.80;;;4.80;99.90;;;;;;5022545;28;20841;-88
2023/03/07 08:25:08;;;;;;;16.20;11.17;;;4.90;99.90;;;;;;5017886;28;20831;-86
2023/03/07 08:27:35;;;;;;;12.80;10.57;;;4.80;99.90;;;;;;5015239;28;20521;-87
2023/03/07 08:30:03;;;;;;;15.47;10.63;;;4.90;99.90;;;;;;5021936;28;20944;-87
2023/03/07 08:32:30;;;;;;;12.77;9.57;;;4.80;99.90;;;;;;5020901;28;20477;-87
2023/03/07 08:34:57;;;;;;;11.10;8.50;;;4.80;99.90;;;;;;5020509;28;20494;-86
2023/03/07 08:37:24;;;;;;;11.90;9.03;;;4.90;99.90;;;;;;5019747;28;20501;-87
2023/03/07 08:39:51;;;;;;;14.80;11.50;;;4.90;99.90;;;;;;5020644;28;20521;-87
2023/03/07 08:42:18;;;;;;;14.90;11.10;;;4.90;99.90;;;;;;5017014;28;20524;-87
2023/03/07 08:44:44;;;;;;;16.10;10.47;;;5.00;99.90;;;;;;5021302;28;20485;-86
2023/03/07 08:47:12;;;;;;;11.93;9.07;;;5.00;99.90;;;;;;5020560;28;20484;-87
2023/03/07 08:49:39;;;;;;;12.60;8.43;;;4.90;99.90;;;;;;5018630;28;20582;-87
2023/03/07 08:52:06;;;;;;;10.33;8.23;;;4.90;99.90;;;;;;5021858;28;20430;-87
2023/03/07 08:54:33;;;;;;;15.17;9.67;;;4.80;99.90;;;;;;5021568;28;20468;-87
2023/03/07 08:57:00;;;;;;;15.07;9.70;;;4.90;99.90;;;;;;5020128;28;20561;-87
2023/03/07 08:59:27;;;;;;;13.63;9.77;;;4.80;99.90;;;;;;5021715;28;20509;-87
2023/03/07 09:01:57;;;;;;;11.20;8.80;;;4.70;99.90;;;;;;5022648;28;20465;-88
2023/03/07 09:04:25;;;;;;;12.33;7.83;;;4.50;99.90;;;;;;5021141;28;20449;-87
2023/03/07 09:06:52;;;;;;;10.10;7.00;;;4.40;99.90;;;;;;5041548;23;20610;-83
2023/03/07 09:09:19;;;;;;;9.83;7.63;;;4.50;99.90;;;;;;5029964;28;20511;-83
2023/03/07 09:11:45;;;;;;;12.20;7.47;;;4.40;99.90;;;;;;5018371;28;20440;-83
2023/03/07 09:14:12;;;;;;;9.37;7.80;;;4.40;99.90;;;;;;5019596;28;20506;-82
2023/03/07 09:16:40;;;;;;;10.07;7.57;;;4.40;99.90;;;;;;5018210;28;20466;-84
2023/03/07 09:19:07;;;;;;;8.43;6.30;;;4.40;99.90;;;;;;5018175;28;20834;-84
2023/03/07 09:21:35;;;;;;;9.00;6.23;;;4.40;99.90;;;;;;5017612;28;20434;-82
2023/03/07 09:24:03;;;;;;;8.90;6.70;;;4.40;99.90;;;;;;5018898;28;20454;-84
2023/03/07 09:26:30;;;;;;;10.83;7.77;;;4.30;99.90;;;;;;5018727;28;20481;-84
2023/03/07 09:28:56;;;;;;;9.97;7.53;;;4.20;99.90;;;;;;5018179;28;20466;-81
2023/03/07 09:31:24;;;;;;;8.60;7.30;;;4.30;99.90;;;;;;5032660;28;20506;-84
2023/03/07 09:33:51;;;;;;;7.63;5.50;;;4.30;99.90;;;;;;5021901;28;20488;-84
2023/03/07 09:36:19;;;;;;;9.63;6.00;;;4.30;99.90;;;;;;5024373;28;20832;-83
2023/03/07 09:38:47;;;;;;;6.60;5.90;;;4.30;99.90;;;;;;5020801;28;20425;-83
2023/03/07 09:41:41;;;;;;;8.63;7.13;;;4.30;99.90;;;;;;5017912;28;20468;-83
2023/03/07 09:44:17;;;;;;;5.47;4.23;;;4.30;99.90;;;;;;5028555;28;20489;-83
2023/03/07 09:46:58;;;;;;;4.63;4.13;;;4.30;99.90;;;;;;5015179;28;20546;-83
2023/03/07 09:49:33;;;;;;;4.97;4.07;;;4.20;99.90;;;;;;5020223;28;20471;-83
2023/03/07 09:52:01;;;;;;;7.20;5.20;;;4.20;99.90;;;;;;5011419;28;21124;-83
2023/03/07 09:54:38;;;;;;;5.70;4.70;;;4.30;99.90;;;;;;5017970;28;20458;-84
2023/03/07 09:57:06;;;;;;;5.20;4.33;;;4.40;99.90;;;;;;5016381;28;20552;-83
2023/03/07 09:59:36;;;;;;;3.77;3.37;;;4.50;99.90;;;;;;5016246;28;20455;-83
2023/03/07 10:02:10;;;;;;;5.73;2.73;;;4.50;99.90;;;;;;5025444;28;20466;-83
2023/03/07 10:04:46;;;;;;;6.10;3.63;;;4.50;99.90;;;;;;5024467;28;20871;-83
2023/03/07 10:07:16;;;;;;;4.27;2.80;;;4.50;99.90;;;;;;5023164;28;20471;-82
2023/03/07 10:09:45;;;;;;;4.60;2.97;;;4.50;99.90;;;;;;5017914;28;20533;-84
2023/03/07 10:12:24;;;;;;;3.83;3.00;;;4.40;99.90;;;;;;5021737;28;21041;-84
2023/03/07 10:15:11;;;;;;;4.73;4.20;;;4.40;99.90;;;;;;5025050;28;20438;-84
2023/03/07 10:18:00;;;;;;;4.43;3.50;;;4.40;99.90;;;;;;5010627;28;20500;-84
2023/03/07 10:20:39;;;;;;;5.13;3.70;;;4.50;99.90;;;;;;5017025;28;20428;-85
2023/03/07 10:23:21;;;;;;;4.50;4.10;;;4.60;99.90;;;;;;5025397;28;20443;-84
2023/03/07 10:25:57;;;;;;;5.27;4.47;;;4.50;99.90;;;;;;5034941;28;21113;-84
2023/03/07 10:28:28;;;;;;;5.93;5.20;;;4.40;99.90;;;;;;5021322;28;20468;-82
2023/03/07 10:30:58;;;;;;;5.70;4.60;;;4.40;99.90;;;;;;5017171;28;20463;-84
2023/03/07 10:33:27;;;;;;;6.00;5.40;;;4.40;99.90;;;;;;5019272;28;20450;-84
2023/03/07 10:35:58;;;;;;;5.23;4.70;;;4.40;99.90;;;;;;5017545;28;20432;-85
2023/03/07 10:38:31;;;;;;;5.63;4.40;;;4.40;99.90;;;;;;5015858;28;20477;-83
2023/03/07 10:41:03;;;;;;;6.53;4.60;;;4.30;99.90;;;;;;5016076;28;20478;-81
2023/03/07 10:43:32;;;;;;;5.17;4.67;;;4.30;99.90;;;;;;5015100;28;20458;-81
2023/03/07 10:46:10;;;;;;;5.87;5.10;;;4.30;99.90;;;;;;5019076;28;20449;-81
2023/03/07 10:48:40;;;;;;;6.17;4.53;;;4.20;99.90;;;;;;5011812;28;20488;-81
2023/03/07 10:51:15;;;;;;;5.70;4.63;;;4.30;99.90;;;;;;5019032;28;20458;-85
2023/03/07 10:53:42;;;;;;;5.87;5.27;;;4.40;99.90;;;;;;5027010;28;21044;-84
2023/03/07 10:56:13;;;;;;;4.87;4.23;;;4.30;99.90;;;;;;5037367;28;20435;-84
2023/03/07 10:58:43;;;;;;;6.63;5.23;;;4.40;99.90;;;;;;5036028;28;20455;-85
2023/03/07 11:01:17;;;;;;;5.67;4.50;;;4.40;99.90;;;;;;5037492;28;20434;-85
2023/03/07 11:03:47;;;;;;;5.37;3.80;;;4.50;99.90;;;;;;5037516;28;20506;-84
2023/03/07 11:06:27;;;;;;;5.60;4.40;;;4.40;99.90;;;;;;5031055;28;20467;-84
2023/03/07 11:08:54;;;;;;;4.97;4.47;;;4.40;99.90;;;;;;5034560;28;20473;-85
2023/03/07 11:11:25;;;;;;;4.97;4.13;;;4.30;99.90;;;;;;5019607;28;20458;-82
2023/03/07 11:14:09;;;;;;;6.10;4.10;;;4.30;99.90;;;;;;5020794;28;20437;-85
2023/03/07 11:16:41;;;;;;;6.70;4.53;;;4.20;99.90;;;;;;5018653;28;21063;-83
2023/03/07 11:19:28;;;;;;;6.10;4.77;;;4.10;99.90;;;;;;5017550;28;20457;-84
2023/03/07 11:21:56;;;;;;;6.93;4.77;;;4.10;99.90;;;;;;5018974;28;20447;-85
2023/03/07 11:24:27;;;;;;;6.20;5.10;;;4.10;99.90;;;;;;5022002;28;20457;-84
2023/03/07 11:26:57;;;;;;;5.40;4.00;;;4.10;99.90;;;;;;5037959;28;20485;-85
2023/03/07 11:29:24;;;;;;;6.17;3.97;;;4.20;99.90;;;;;;5034605;28;20489;-84
2023/03/07 11:32:02;;;;;;;4.80;4.00;;;4.20;99.90;;;;;;5031177;28;20485;-83
2023/03/07 11:34:37;;;;;;;6.13;4.87;;;4.20;99.90;;;;;;5021816;28;20447;-84
2023/03/07 11:37:24;;;;;;;6.77;4.57;;;4.10;99.90;;;;;;5018420;28;20508;-83
2023/03/07 11:40:11;;;;;;;5.83;5.20;;;4.20;99.90;;;;;;5023649;28;20457;-84
2023/03/07 11:42:45;;;;;;;8.20;4.40;;;4.30;99.90;;;;;;5002335;28;20855;-84
2023/03/07 11:45:26;;;;;;;6.07;4.17;;;4.30;99.90;;;;;;5030998;28;20458;-84
2023/03/07 11:48:03;;;;;;;7.83;5.30;;;4.30;99.90;;;;;;5019934;28;20453;-85
2023/03/07 11:50:32;;;;;;;6.53;5.20;;;4.20;99.90;;;;;;5024106;28;20542;-85
2023/03/07 11:53:17;;;;;;;7.27;6.10;;;4.10;99.90;;;;;;5026889;28;20542;-85
2023/03/07 11:55:54;;;;;;;9.00;5.97;;;4.10;99.90;;;;;;5022762;28;20468;-85
2023/03/07 11:58:39;;;;;;;8.63;6.87;;;4.20;99.90;;;;;;5040200;28;20518;-83
2023/03/07 12:01:20;;;;;;;6.87;5.97;;;4.10;99.90;;;;;;5023893;28;20456;-85
2023/03/07 12:04:03;;;;;;;7.60;6.63;;;4.20;99.90;;;;;;5019801;28;20496;-84
2023/03/07 12:06:36;;;;;;;11.07;8.10;;;4.30;99.90;;;;;;5017815;28;20477;-85
2023/03/07 12:09:16;;;;;;;7.03;5.53;;;4.30;99.90;;;;;;5037704;28;20489;-84
2023/03/07 12:12:08;;;;;;;8.80;6.40;;;4.30;99.90;;;;;;5032539;28;20960;-83
2023/03/07 12:14:47;;;;;;;8.83;6.00;;;4.40;99.90;;;;;;5026210;28;20997;-83
2023/03/07 12:17:27;;;;;;;6.63;5.47;;;4.50;99.90;;;;;;5024815;28;20572;-84
2023/03/07 12:20:17;;;;;;;5.83;5.17;;;4.50;99.90;;;;;;5025278;28;20459;-83
2023/03/07 12:22:56;;;;;;;8.30;5.07;;;4.70;99.90;;;;;;5025910;28;20458;-83
2023/03/07 12:25:27;;;;;;;5.73;4.00;;;4.60;99.90;;;;;;5034115;28;20456;-84
2023/03/07 12:28:05;;;;;;;5.00;4.10;;;4.80;99.90;;;;;;5032714;28;20508;-84
2023/03/07 12:30:44;;;;;;;4.97;4.10;;;5.00;99.90;;;;;;5029779;28;20485;-84
2023/03/07 12:33:18;;;;;;;5.33;4.07;;;4.90;96.40;;;;;;5021271;28;20438;-84
2023/03/07 12:35:49;;;;;;;4.90;4.10;;;4.90;99.90;;;;;;5017346;28;20456;-84
2023/03/07 12:38:27;;;;;;;5.40;4.23;;;4.80;99.90;;;;;;5022021;28;21000;-85
2023/03/07 12:41:00;;;;;;;4.70;3.80;;;4.60;99.90;;;;;;5022845;28;20465;-85
2023/03/07 12:43:33;;;;;;;5.93;4.07;;;4.70;99.90;;;;;;5023084;28;20433;-83
2023/03/07 12:46:11;;;;;;;5.40;3.93;;;4.60;99.90;;;;;;5021019;28;20484;-82
2023/03/07 12:48:43;;;;;;;5.97;4.40;;;4.60;99.90;;;;;;5039184;28;20459;-83
2023/03/07 12:51:18;;;;;;;8.50;4.70;;;4.50;99.90;;;;;;5034094;28;20459;-82
2023/03/07 12:53:49;;;;;;;10.57;6.20;;;4.50;99.90;;;;;;5016161;28;20536;-81
2023/03/07 12:56:21;;;;;;;8.50;5.30;;;4.50;99.90;;;;;;5018552;28;20499;-82
2023/03/07 12:58:52;;;;;;;8.67;6.10;;;4.50;99.90;;;;;;5021838;28;20535;-83